Dunnville, Canada
Current Conditions -  °F | °C
As of 10:00 PM on Wednesday 22 Oct 2014 (Local Time) from CYHM Reporting Station
Overcast Overcast  
Wind Chill: 44°   Ceiling: 5100
Heat Index: 48°   Visibility: 15mi
Dew Point: 37°   Wind: 9mph
Humidity: 66%   Direction: 10°N
Pressure: 30.23"   Gusts: NA
Location:  42.9°N, 79.62°W
Report Text: CYHM 230200Z 01008KT 15SM FEW037 OVC051 09/03 A3023 RMK SC2SC6 SLP242
Loading
Personal Weather Stations






























Interactive Weather Map
Tropical Storm Tracking
New forecast layout! Learn more

10-Day Weather Forecast

Advertisements
Track Severe Weather on mobile